Airfield :
LOGIN :

Register | Disclaimer

   EN    FR    IT 

 










Legend :    VFR   Marginal VFR   IFR   Intensive IFR   Very Intensive IFR
Visi :
Ceiling :
>= 8 km
>= 3000ft
5 to 8 km
1000 to 3000 ft
1500m to 5 km
500 to 1000 ft
800 to 1500m
200 to 500 ft
< 800m
< 200 ft
Symbols :   Thunderstorms  Fog  Heavy snow  Heavy precipitations  Wind > 20 kt
SIGMETs :     Misc.  Thunderstorms  Icing  Turbulence  Mountain Waves  Volcanic Ashes






- Airport Elevation : 408 ft
- IATA code : SOB


LHSM - Sarmellek Balaton

CURRENT METAR :
  • 082115Z AUTO 09005KT 060V130 7000 NSC 01/M01 Q1006

EXPIRED METARs :
  • 082045Z AUTO 08005KT 060V120 7000 NSC 01/M01 Q1006
  • 082015Z AUTO 08005KT 8000 NSC 01/M01 Q1006
  • 081945Z AUTO 08005KT 8000 NSC 01/M02 Q1006
  • 081915Z AUTO 10004KT 8000 NSC 01/M02 Q1006
  • 081845Z AUTO 12005KT 8000 NSC 01/M02 Q1006

TAF TAF LHSM
Valid from the 08 at 15:00 until the 09 at 00:00 UTC


081415Z 0815/0824 16012KT 8000 NSC
BECMG 0816/0819 14007KT



MET'MAP, your aeronautical weather chart ! - Copyright ORBIFLY December 2007 - Disclaimer

ORBIFLY MET'MAP TEAM :

Programming & Development : Alexandra Zaïnal
Concept & original design : Baudouin d'Aumeries
Assistance for programming : Marc-Olivier Méhu
Technical & hardware support : Manuel Goepfert

Contact : metmap@orbifly.com




SOURCES & CREDITS :

   NOAA